Jarrell, Texas
Current Conditions -  °F | °C
As of 4:48 PM on Tuesday 21 Oct 2014 (Local Time) from KGTU Reporting Station
Clear Clear  
Wind Chill: 81°   Ceiling: Unl
Heat Index: 81°   Visibility: 10mi
Dew Point: 46°   Wind: 8mph
Humidity: 30%   Direction: 90°E
Pressure: 30"   Gusts: NA
Location:  30.82°N, 97.6°W
Report Text: KGTU 212148Z 09007KT 10SM CLR 27/08 A3000
Loading
Personal Weather Stations






























Interactive Weather Map New forecast layout! Learn more

10-Day Weather Forecast

Advertisements
Track Severe Weather on mobile